Nearby METAR Reports

 

KSEE - San Diego/Santee, California, USA
Distance from station: E 4mi, 6km
Updated: Sat, 20-Apr-2024 3:55am PDT
Overcast
Overcast
 Wind from ENE
Wind: ENE 6 mph , 9 km/h
Temperature: 59°F , 15°C
Dew Point: 50°F , 10°C
Humidity: 72%
Barometer: 29.98 inHg , 1015.2 hPa
Clouds: Overcast
Visibility: 10 miles , 16 km
Cloud details: Overcast 2100 ft
2024/04/20 10:55 KSEE 201055Z AUTO 07005KT 10SM OVC021 15/10 A2998 RMK AO2
KMYF - San Diego/Mntgmy, California, USA
Distance from station: W 6mi, 10km
Updated: Sat, 20-Apr-2024 3:53am PDT
Overcast
Overcast
 Wind from NNW
Wind: NNW 5 mph , 7 km/h
Temperature: 57°F , 14°C
Dew Point: 48°F , 9°C
Humidity: 72%
Barometer: 29.99 inHg , 1015.6 hPa
Clouds: Overcast
Visibility: 10 miles , 16 km
Cloud details: Overcast 1900 ft
2024/04/20 10:53 KMYF 201053Z AUTO 34004KT 10SM OVC019 14/09 A2999 RMK AO2 SLP152 T01440094
 
KNKX - Miramar Nas/San, California, USA
Distance from station: WNW 7mi, 11km
Updated: Sat, 20-Apr-2024 3:55am PDT
Overcast
Overcast
 Wind from calm
Wind: Calm
Temperature: 54°F , 12°C
Dew Point: 52°F , 11°C
Humidity: 94%
Barometer: 29.98 inHg , 1015.2 hPa
Clouds: Overcast
Visibility: 9 miles , 14 km
Cloud details: Overcast 1700 ft
2024/04/20 10:55 KNKX 201055Z 00000KT 9SM OVC017 12/11 A2998 RMK AO2 SLP149 T01220106
KSAN - San Diego, California, USA
Distance from station: WSW 11mi, 17km
Updated: Sat, 20-Apr-2024 3:51am PDT
Overcast
Overcast
 Wind from WNW
Wind: WNW 3 mph , 6 km/h
Temperature: 61°F , 16°C
Dew Point: 50°F , 10°C
Humidity: 68%
Barometer: 30.00 inHg , 1015.9 hPa
Clouds: Overcast
Visibility: 10 miles , 16 km
Cloud details: Overcast 2400 ft
2024/04/20 10:51 KSAN 201051Z 30003KT 10SM OVC024 16/10 A3000 RMK AO2 SLP159 T01560100 $
 
KNZY - North Island Nas, California, USA
Distance from station: SW 13mi, 22km
Updated: Sat, 20-Apr-2024 3:52am PDT
Overcast
Overcast
 Wind from W
Wind: W 5 mph , 7 km/h
Temperature: 59°F , 15°C
Dew Point: 52°F , 11°C
Humidity: 77%
Barometer: 29.98 inHg , 1015.2 hPa
Clouds: Overcast
Visibility: 10 miles , 16 km
Cloud details: Overcast 2500 ft
2024/04/20 10:52 KNZY 201052Z AUTO 28004KT 10SM OVC025 15/11 A2998 RMK AO2 SLP152 T01500111 $
KRNM - Ramona, California, USA
Distance from station: NNE 16mi, 26km
Updated: Sat, 20-Apr-2024 3:53am PDT
Overcast
Overcast
 Wind from SSE
Wind: SSE 5 mph , 7 km/h
Temperature: 54°F , 12°C
Dew Point: 48°F , 9°C
Humidity: 82%
Barometer: 29.99 inHg , 1015.6 hPa
Clouds: Overcast
Visibility: 8 miles , 13 km
Cloud details: Overcast 600 ft
2024/04/20 10:53 KRNM 201053Z AUTO 15004KT 8SM OVC006 12/09 A2999 RMK AO2 SLP145 T01170094 $
 
KSDM - San Diego/Brown, California, USA
Distance from station: S 16mi, 26km
Updated: Sat, 20-Apr-2024 3:53am PDT
Overcast
Overcast
 Wind from calm
Wind: Calm
Temperature: 57°F , 14°C
Dew Point: 50°F , 10°C
Humidity: 77%
Barometer: 29.98 inHg , 1015.2 hPa
Clouds: Overcast
Visibility: 10 miles , 16 km
Cloud details: Overcast 1800 ft
2024/04/20 10:53 KSDM 201053Z AUTO 00000KT 10SM OVC018 14/10 A2998 RMK AO2 SLP150 T01390100
KNRS - Imperial Beach, California, USA
Distance from station: SSW 18mi, 29km
Updated: Sat, 20-Apr-2024 3:53am PDT
Overcast
Overcast
 Wind from WNW
Wind: WNW 3 mph , 6 km/h
Temperature: 1°F , -17°C
Barometer: 30.00 inHg , 1015.9 hPa
Clouds: Overcast
Cloud details: Overcast 2300 ft
2024/04/20 10:53 KNRS 201053Z AUTO 29003KT OVC023 M17/ A3000 RMK AO2 SLP157 T1167 $
 
MMTJ - Tijuana Intl Arp, Mexico
Distance from station: S 20mi, 32km
Updated: Sat, 20-Apr-2024 3:40am PDT
Overcast
Overcast
 Wind from W
Wind: W 7 mph , 11 km/h
Temperature: 57°F , 14°C
Dew Point: 50°F , 10°C
Humidity: 77%
Barometer: 30.01 inHg , 1016.3 hPa
Clouds: Overcast
Visibility: 8 miles , 13 km
Cloud details: Overcast 2200 ft
2024/04/20 10:40 MMTJ 201040Z 28006KT 8SM OVC022 14/10 A3001 RMK 8/6// HZY
KCRQ - Carlsbad, California, USA
Distance from station: NW 26mi, 43km
Updated: Sat, 20-Apr-2024 3:53am PDT
Overcast
Overcast
 Wind from varies
Wind: varies 3 mph , 6 km/h
Temperature: 57°F , 14°C
Dew Point: 50°F , 10°C
Humidity: 77%
Barometer: 29.98 inHg , 1015.2 hPa
Clouds: Overcast
Visibility: 10 miles , 16 km
Cloud details: Overcast 1600 ft
2024/04/20 10:53 KCRQ 201053Z AUTO VRB03KT 10SM OVC016 14/10 A2998 RMK AO2 SLP149 T01440100
 
KOKB - Oceanside, California, USA
Distance from station: NW 33mi, 54km
Updated: Sat, 20-Apr-2024 3:52am PDT
Overcast
Overcast
 Wind from NNE
Wind: NNE 3 mph , 6 km/h
Temperature: 57°F , 14°C
Dew Point: 54°F , 12°C
Humidity: 88%
Barometer: 29.98 inHg , 1015.2 hPa
Clouds: Overcast
Visibility: 8 miles , 13 km
Cloud details: Overcast 2000 ft
2024/04/20 10:52 KOKB 201052Z AUTO 03003KT 8SM OVC020 14/12 A2998 RMK AO2 SLP152 T01440117
KCZZ - Campo, California, USA
Distance from station: ESE 35mi, 56km
Updated: Mon, 26-Oct-2020 8:52am PDT
NOT Current

 Wind from NE
Wind: NE 14 mph , 22 km/h, Gust: 20 mph , 31 km/h
Temperature: 48°F , 9°C
Wind Chill: 42°F , 6°C
Dew Point: 27°F , -3°C
Humidity: 43%
Barometer: 29.99 inHg , 1015.6 hPa
2020/10/26 15:52 KCZZ 261552Z AUTO 05012G17KT 09/M03 A2999 RMK AO1 SLP140 T00891028
 
KNFG - Camp Pendleton, California, USA
Distance from station: NNW 37mi, 59km
Updated: Sat, 20-Apr-2024 3:55am PDT
Overcast
Overcast
 Wind from calm
Wind: Calm
Temperature: 59°F , 15°C
Dew Point: 52°F , 11°C
Humidity: 77%
Barometer: 29.99 inHg , 1015.6 hPa
Clouds: Overcast
Visibility: 10 miles , 16 km
Cloud details: Overcast 1900 ft
2024/04/20 10:55 KNFG 201055Z AUTO 00000KT 10SM OVC019 15/11 A2999 RMK AO2 SLP154 T01500111 $
KRIV - Riverside/March, California, USA
Distance from station: N 74mi, 119km
Updated: Sat, 20-Apr-2024 3:55am PDT
Mist, Overcast
Mist, Overcast
 Wind from calm
Wind: Calm
Temperature: 54°F , 12°C
Dew Point: 52°F , 11°C
Humidity: 94%
Barometer: 29.99 inHg , 1015.6 hPa
Summary: Mist
Clouds: Overcast
Visibility: 3 miles , 5 km
Cloud details: Overcast 600 ft
2024/04/20 10:55 KRIV 201055Z 00000KT 3SM BR OVC006 12/11 A2999 RMK AO2A SLP149 T01160107
 
KTRM - Thermal/Palm Spg, California, USA
Distance from station: NE 75mi, 121km
Updated: Sat, 20-Apr-2024 3:52am PDT
Clear
Clear
 Wind from NNW
Wind: NNW 17 mph , 28 km/h
Temperature: 70°F , 21°C
Dew Point: 50°F , 10°C
Humidity: 50%
Barometer: 29.78 inHg , 1008.5 hPa
Clouds: Clear
Visibility: 10 miles , 16 km
2024/04/20 10:52 KTRM 201052Z AUTO 33015KT 10SM CLR 21/10 A2978 RMK AO2 SLP087 T02060100 $
KPSP - Palm Springs, California, USA
Distance from station: NNE 76mi, 122km
Updated: Sat, 20-Apr-2024 3:53am PDT
Clear
Clear
 Wind from calm
Wind: Calm
Temperature: 64°F , 18°C
Dew Point: 50°F , 10°C
Humidity: 60%
Barometer: 29.82 inHg , 1009.8 hPa
Clouds: Clear
2024/04/20 10:53 KPSP 201053Z AUTO 00000KT CLR 18/10 A2982 RMK AO2 RAE42 SLP095 T01830100 PNO $
 
KSNA - Costa Mesa, California, USA
Distance from station: NW 76mi, 123km
Updated: Sat, 20-Apr-2024 3:53am PDT
Overcast
Overcast
 
Barometer: 29.98 inHg , 1015.2 hPa
Clouds: Overcast
Visibility: 10 miles , 16 km
Cloud details: Overcast 1800 ft
2024/04/20 10:53 KSNA 201053Z AUTO 10SM OVC018 A2998 RMK AO2 SLPNO PWINO $
KNJK - El Centro Naf, California, USA
Distance from station: E 79mi, 127km
Updated: Sat, 20-Apr-2024 3:56am PDT
Clear
Clear
 Wind from WSW
Wind: WSW 3 mph , 6 km/h
Temperature: 66°F , 19°C
Dew Point: 34°F , 1°C
Humidity: 30%
Barometer: 29.80 inHg , 1009.1 hPa
Clouds: Clear
Visibility: 10 miles , 16 km
2024/04/20 10:56 KNJK 201056Z AUTO 24003KT 10SM CLR 19/01 A2980 RMK AO2 SLP107 T01890011 $
 
KAJO - Corona Muni, California, USA
Distance from station: NNW 82mi, 132km
Updated: Sat, 20-Apr-2024 3:56am PDT
Overcast
Overcast
 Wind from calm
Wind: Calm
Temperature: 55°F , 13°C
Dew Point: 52°F , 11°C
Humidity: 88%
Barometer: 30.00 inHg , 1015.9 hPa
Clouds: Overcast
Visibility: 10 miles , 16 km
Cloud details: Overcast 1500 ft
2024/04/20 10:56 KAJO 201056Z AUTO 00000KT 10SM OVC015 13/11 A3000 RMK AO2 SLP153 T01330111